sensor_id;sensor_type;location;lat;lon;timestamp;P1;durP1;ratioP1;P2;durP2;ratioP2
56181;SDS011;51963;46.052;14.544;2023-01-19T00:01:18;37.30;;;18.20;;
56181;SDS011;51963;46.052;14.544;2023-01-19T00:03:44;39.85;;;20.10;;
56181;SDS011;51963;46.052;14.544;2023-01-19T00:06:10;42.88;;;20.42;;
56181;SDS011;51963;46.052;14.544;2023-01-19T00:08:36;44.60;;;20.33;;
56181;SDS011;51963;46.052;14.544;2023-01-19T00:11:03;41.40;;;20.38;;
56181;SDS011;51963;46.052;14.544;2023-01-19T00:13:29;42.40;;;19.75;;
56181;SDS011;51963;46.052;14.544;2023-01-19T00:15:55;42.50;;;21.00;;
56181;SDS011;51963;46.052;14.544;2023-01-19T00:18:21;43.28;;;20.92;;
56181;SDS011;51963;46.052;14.544;2023-01-19T00:20:46;41.65;;;19.23;;
56181;SDS011;51963;46.052;14.544;2023-01-19T00:23:13;46.70;;;20.45;;
56181;SDS011;51963;46.052;14.544;2023-01-19T00:25:39;44.22;;;21.35;;
56181;SDS011;51963;46.052;14.544;2023-01-19T00:28:09;44.35;;;21.42;;
56181;SDS011;51963;46.052;14.544;2023-01-19T00:30:36;43.58;;;20.83;;
56181;SDS011;51963;46.052;14.544;2023-01-19T00:33:02;44.40;;;19.63;;
56181;SDS011;51963;46.052;14.544;2023-01-19T00:35:27;41.63;;;19.83;;
56181;SDS011;51963;46.052;14.544;2023-01-19T00:37:54;47.80;;;20.88;;
56181;SDS011;51963;46.052;14.544;2023-01-19T00:40:21;49.60;;;21.13;;
56181;SDS011;51963;46.052;14.544;2023-01-19T00:42:46;50.97;;;23.45;;
56181;SDS011;51963;46.052;14.544;2023-01-19T00:45:14;52.80;;;23.88;;
56181;SDS011;51963;46.052;14.544;2023-01-19T00:47:48;52.10;;;23.15;;
56181;SDS011;51963;46.052;14.544;2023-01-19T00:50:25;51.85;;;22.38;;
56181;SDS011;51963;46.052;14.544;2023-01-19T00:52:52;43.35;;;20.95;;
56181;SDS011;51963;46.052;14.544;2023-01-19T00:55:19;48.60;;;21.55;;
56181;SDS011;51963;46.052;14.544;2023-01-19T00:57:45;53.60;;;22.35;;
56181;SDS011;51963;46.052;14.544;2023-01-19T01:00:12;52.30;;;22.92;;
56181;SDS011;51963;46.052;14.544;2023-01-19T01:05:06;54.03;;;21.13;;
56181;SDS011;51963;46.052;14.544;2023-01-19T01:07:32;43.22;;;20.17;;
56181;SDS011;51963;46.052;14.544;2023-01-19T01:10:06;44.78;;;20.00;;
56181;SDS011;51963;46.052;14.544;2023-01-19T01:12:33;45.78;;;20.90;;
56181;SDS011;51963;46.052;14.544;2023-01-19T01:14:59;46.63;;;20.73;;
56181;SDS011;51963;46.052;14.544;2023-01-19T01:17:25;45.97;;;21.98;;
56181;SDS011;51963;46.052;14.544;2023-01-19T01:19:51;49.40;;;19.63;;
56181;SDS011;51963;46.052;14.544;2023-01-19T01:22:17;44.63;;;21.52;;
56181;SDS011;51963;46.052;14.544;2023-01-19T01:24:42;45.58;;;20.75;;
56181;SDS011;51963;46.052;14.544;2023-01-19T01:27:10;45.33;;;20.73;;
56181;SDS011;51963;46.052;14.544;2023-01-19T01:29:36;41.58;;;19.63;;
56181;SDS011;51963;46.052;14.544;2023-01-19T01:36:08;44.45;;;19.45;;
56181;SDS011;51963;46.052;14.544;2023-01-19T01:38:36;41.60;;;19.00;;
56181;SDS011;51963;46.052;14.544;2023-01-19T01:41:02;41.13;;;19.27;;
56181;SDS011;51963;46.052;14.544;2023-01-19T01:43:48;46.58;;;20.40;;
56181;SDS011;51963;46.052;14.544;2023-01-19T01:46:18;43.20;;;19.48;;
56181;SDS011;51963;46.052;14.544;2023-01-19T01:48:54;39.42;;;19.02;;
56181;SDS011;51963;46.052;14.544;2023-01-19T01:51:43;40.13;;;18.85;;
56181;SDS011;51963;46.052;14.544;2023-01-19T01:54:20;42.97;;;20.75;;
56181;SDS011;51963;46.052;14.544;2023-01-19T01:56:50;44.65;;;20.27;;
56181;SDS011;51963;46.052;14.544;2023-01-19T01:59:21;46.88;;;20.45;;
56181;SDS011;51963;46.052;14.544;2023-01-19T02:02:36;40.35;;;18.98;;
56181;SDS011;51963;46.052;14.544;2023-01-19T02:04:58;43.10;;;19.88;;
56181;SDS011;51963;46.052;14.544;2023-01-19T02:07:37;40.03;;;18.17;;
56181;SDS011;51963;46.052;14.544;2023-01-19T02:10:43;39.60;;;19.50;;
56181;SDS011;51963;46.052;14.544;2023-01-19T02:13:29;39.15;;;19.35;;
56181;SDS011;51963;46.052;14.544;2023-01-19T02:15:58;40.75;;;18.50;;
56181;SDS011;51963;46.052;14.544;2023-01-19T02:18:27;38.25;;;19.08;;
56181;SDS011;51963;46.052;14.544;2023-01-19T02:21:00;36.03;;;18.63;;
56181;SDS011;51963;46.052;14.544;2023-01-19T02:26:11;39.22;;;18.83;;
56181;SDS011;51963;46.052;14.544;2023-01-19T02:28:59;38.83;;;17.58;;
56181;SDS011;51963;46.052;14.544;2023-01-19T02:31:27;40.60;;;17.85;;
56181;SDS011;51963;46.052;14.544;2023-01-19T02:33:54;37.42;;;18.35;;
56181;SDS011;51963;46.052;14.544;2023-01-19T02:36:22;38.30;;;17.70;;
56181;SDS011;51963;46.052;14.544;2023-01-19T02:38:52;38.70;;;18.80;;
56181;SDS011;51963;46.052;14.544;2023-01-19T02:41:21;40.30;;;19.00;;
56181;SDS011;51963;46.052;14.544;2023-01-19T02:43:50;40.78;;;18.30;;
56181;SDS011;51963;46.052;14.544;2023-01-19T02:46:17;35.80;;;17.10;;
56181;SDS011;51963;46.052;14.544;2023-01-19T02:48:43;39.58;;;18.60;;
56181;SDS011;51963;46.052;14.544;2023-01-19T02:51:16;38.75;;;17.27;;
56181;SDS011;51963;46.052;14.544;2023-01-19T02:53:53;34.25;;;16.95;;
56181;SDS011;51963;46.052;14.544;2023-01-19T03:02:14;35.55;;;18.10;;
56181;SDS011;51963;46.052;14.544;2023-01-19T03:07:15;40.50;;;18.23;;
56181;SDS011;51963;46.052;14.544;2023-01-19T03:09:53;33.63;;;17.98;;
56181;SDS011;51963;46.052;14.544;2023-01-19T03:15:19;36.05;;;16.60;;
56181;SDS011;51963;46.052;14.544;2023-01-19T03:17:50;37.10;;;18.27;;
56181;SDS011;51963;46.052;14.544;2023-01-19T03:20:19;38.75;;;18.38;;
56181;SDS011;51963;46.052;14.544;2023-01-19T03:22:49;37.67;;;17.83;;
56181;SDS011;51963;46.052;14.544;2023-01-19T03:25:20;38.80;;;17.90;;
56181;SDS011;51963;46.052;14.544;2023-01-19T03:27:47;35.90;;;17.20;;
56181;SDS011;51963;46.052;14.544;2023-01-19T03:30:19;34.08;;;17.38;;
56181;SDS011;51963;46.052;14.544;2023-01-19T03:32:59;37.92;;;17.77;;
56181;SDS011;51963;46.052;14.544;2023-01-19T03:35:34;36.22;;;17.38;;
56181;SDS011;51963;46.052;14.544;2023-01-19T03:38:05;38.25;;;18.10;;
56181;SDS011;51963;46.052;14.544;2023-01-19T03:40:36;36.92;;;17.85;;
56181;SDS011;51963;46.052;14.544;2023-01-19T03:43:03;36.88;;;18.02;;
56181;SDS011;51963;46.052;14.544;2023-01-19T03:45:30;33.53;;;15.93;;
56181;SDS011;51963;46.052;14.544;2023-01-19T03:47:59;37.78;;;18.40;;
56181;SDS011;51963;46.052;14.544;2023-01-19T03:50:27;38.58;;;18.83;;
56181;SDS011;51963;46.052;14.544;2023-01-19T03:53:07;36.70;;;17.55;;
56181;SDS011;51963;46.052;14.544;2023-01-19T03:55:39;36.45;;;16.98;;
56181;SDS011;51963;46.052;14.544;2023-01-19T03:58:07;32.47;;;16.83;;
56181;SDS011;51963;46.052;14.544;2023-01-19T04:00:33;36.22;;;17.13;;
56181;SDS011;51963;46.052;14.544;2023-01-19T04:03:01;35.90;;;17.48;;
56181;SDS011;51963;46.052;14.544;2023-01-19T04:05:27;35.15;;;17.55;;
56181;SDS011;51963;46.052;14.544;2023-01-19T04:07:53;33.67;;;17.40;;
56181;SDS011;51963;46.052;14.544;2023-01-19T04:10:19;34.05;;;16.67;;
56181;SDS011;51963;46.052;14.544;2023-01-19T04:12:45;40.42;;;18.58;;
56181;SDS011;51963;46.052;14.544;2023-01-19T04:15:11;40.35;;;20.13;;
56181;SDS011;51963;46.052;14.544;2023-01-19T04:17:37;37.90;;;18.60;;
56181;SDS011;51963;46.052;14.544;2023-01-19T04:20:04;37.15;;;17.65;;
56181;SDS011;51963;46.052;14.544;2023-01-19T04:22:30;39.75;;;18.23;;
56181;SDS011;51963;46.052;14.544;2023-01-19T04:24:56;31.67;;;17.40;;
56181;SDS011;51963;46.052;14.544;2023-01-19T04:27:22;33.88;;;17.13;;
56181;SDS011;51963;46.052;14.544;2023-01-19T04:29:48;30.30;;;16.30;;
56181;SDS011;51963;46.052;14.544;2023-01-19T04:32:13;31.52;;;16.08;;
56181;SDS011;51963;46.052;14.544;2023-01-19T04:34:39;33.13;;;16.58;;
56181;SDS011;51963;46.052;14.544;2023-01-19T04:37:05;32.38;;;16.33;;
56181;SDS011;51963;46.052;14.544;2023-01-19T04:39:32;39.05;;;18.88;;
56181;SDS011;51963;46.052;14.544;2023-01-19T04:41:58;39.97;;;18.77;;
56181;SDS011;51963;46.052;14.544;2023-01-19T04:44:25;37.35;;;17.50;;
56181;SDS011;51963;46.052;14.544;2023-01-19T04:46:52;33.85;;;16.63;;
56181;SDS011;51963;46.052;14.544;2023-01-19T04:49:18;37.58;;;17.05;;
56181;SDS011;51963;46.052;14.544;2023-01-19T04:51:43;37.42;;;16.17;;
56181;SDS011;51963;46.052;14.544;2023-01-19T04:54:09;36.95;;;16.80;;
56181;SDS011;51963;46.052;14.544;2023-01-19T04:56:35;40.97;;;17.52;;
56181;SDS011;51963;46.052;14.544;2023-01-19T04:59:01;40.92;;;17.83;;
56181;SDS011;51963;46.052;14.544;2023-01-19T05:01:26;38.38;;;16.60;;
56181;SDS011;51963;46.052;14.544;2023-01-19T05:03:52;39.25;;;17.40;;
56181;SDS011;51963;46.052;14.544;2023-01-19T05:06:18;35.35;;;16.23;;
56181;SDS011;51963;46.052;14.544;2023-01-19T05:08:43;35.78;;;16.98;;
56181;SDS011;51963;46.052;14.544;2023-01-19T05:11:09;34.05;;;16.23;;
56181;SDS011;51963;46.052;14.544;2023-01-19T05:13:35;36.28;;;16.08;;
56181;SDS011;51963;46.052;14.544;2023-01-19T05:16:00;34.47;;;16.90;;
56181;SDS011;51963;46.052;14.544;2023-01-19T05:18:26;33.38;;;15.38;;
56181;SDS011;51963;46.052;14.544;2023-01-19T05:20:52;31.90;;;15.30;;
56181;SDS011;51963;46.052;14.544;2023-01-19T05:23:17;33.70;;;16.27;;
56181;SDS011;51963;46.052;14.544;2023-01-19T05:25:43;32.45;;;15.77;;
56181;SDS011;51963;46.052;14.544;2023-01-19T05:28:09;30.45;;;14.95;;
56181;SDS011;51963;46.052;14.544;2023-01-19T05:30:35;31.23;;;14.07;;
56181;SDS011;51963;46.052;14.544;2023-01-19T05:33:01;27.13;;;12.50;;
56181;SDS011;51963;46.052;14.544;2023-01-19T05:35:27;30.13;;;13.50;;
56181;SDS011;51963;46.052;14.544;2023-01-19T05:37:52;26.35;;;12.48;;
56181;SDS011;51963;46.052;14.544;2023-01-19T05:40:18;27.95;;;12.52;;
56181;SDS011;51963;46.052;14.544;2023-01-19T05:42:44;25.15;;;11.40;;
56181;SDS011;51963;46.052;14.544;2023-01-19T05:45:09;25.50;;;12.13;;
56181;SDS011;51963;46.052;14.544;2023-01-19T05:47:36;26.48;;;12.88;;
56181;SDS011;51963;46.052;14.544;2023-01-19T05:50:04;26.17;;;11.95;;
56181;SDS011;51963;46.052;14.544;2023-01-19T05:52:30;25.50;;;11.60;;
56181;SDS011;51963;46.052;14.544;2023-01-19T05:54:56;25.45;;;12.60;;
56181;SDS011;51963;46.052;14.544;2023-01-19T05:57:21;25.10;;;12.25;;
56181;SDS011;51963;46.052;14.544;2023-01-19T05:59:47;22.25;;;11.55;;
56181;SDS011;51963;46.052;14.544;2023-01-19T06:02:13;22.95;;;11.50;;
56181;SDS011;51963;46.052;14.544;2023-01-19T06:04:39;25.92;;;12.23;;
56181;SDS011;51963;46.052;14.544;2023-01-19T06:07:04;26.60;;;11.38;;
56181;SDS011;51963;46.052;14.544;2023-01-19T06:09:33;20.65;;;10.00;;
56181;SDS011;51963;46.052;14.544;2023-01-19T06:11:59;20.92;;;9.77;;
56181;SDS011;51963;46.052;14.544;2023-01-19T06:14:25;19.52;;;10.05;;
56181;SDS011;51963;46.052;14.544;2023-01-19T06:16:51;25.23;;;12.05;;
56181;SDS011;51963;46.052;14.544;2023-01-19T06:19:17;22.17;;;11.63;;
56181;SDS011;51963;46.052;14.544;2023-01-19T06:21:42;26.65;;;12.80;;
56181;SDS011;51963;46.052;14.544;2023-01-19T06:24:14;24.55;;;12.48;;
56181;SDS011;51963;46.052;14.544;2023-01-19T06:26:40;24.02;;;12.02;;
56181;SDS011;51963;46.052;14.544;2023-01-19T06:29:08;23.00;;;11.77;;
56181;SDS011;51963;46.052;14.544;2023-01-19T06:31:35;35.65;;;15.27;;
56181;SDS011;51963;46.052;14.544;2023-01-19T06:34:01;28.05;;;11.30;;
56181;SDS011;51963;46.052;14.544;2023-01-19T06:36:27;24.83;;;11.02;;
56181;SDS011;51963;46.052;14.544;2023-01-19T06:38:52;21.58;;;10.05;;
56181;SDS011;51963;46.052;14.544;2023-01-19T06:41:18;22.58;;;10.68;;
56181;SDS011;51963;46.052;14.544;2023-01-19T06:43:44;17.17;;;8.95;;
56181;SDS011;51963;46.052;14.544;2023-01-19T06:46:09;21.38;;;9.40;;
56181;SDS011;51963;46.052;14.544;2023-01-19T06:48:35;19.05;;;9.13;;
56181;SDS011;51963;46.052;14.544;2023-01-19T06:51:01;18.70;;;9.50;;
56181;SDS011;51963;46.052;14.544;2023-01-19T06:53:27;18.95;;;9.32;;
56181;SDS011;51963;46.052;14.544;2023-01-19T06:56:00;20.08;;;9.38;;
56181;SDS011;51963;46.052;14.544;2023-01-19T06:58:27;17.85;;;8.70;;
56181;SDS011;51963;46.052;14.544;2023-01-19T07:00:54;17.10;;;8.80;;
56181;SDS011;51963;46.052;14.544;2023-01-19T07:03:21;17.92;;;8.38;;
56181;SDS011;51963;46.052;14.544;2023-01-19T07:05:51;14.70;;;7.20;;
56181;SDS011;51963;46.052;14.544;2023-01-19T07:08:17;14.00;;;7.68;;
56181;SDS011;51963;46.052;14.544;2023-01-19T07:10:43;15.68;;;7.50;;
56181;SDS011;51963;46.052;14.544;2023-01-19T07:13:09;18.25;;;8.45;;
56181;SDS011;51963;46.052;14.544;2023-01-19T07:15:34;14.88;;;7.43;;
56181;SDS011;51963;46.052;14.544;2023-01-19T07:18:02;13.63;;;7.07;;
56181;SDS011;51963;46.052;14.544;2023-01-19T07:20:34;16.13;;;8.30;;
56181;SDS011;51963;46.052;14.544;2023-01-19T07:23:00;15.38;;;7.57;;
56181;SDS011;51963;46.052;14.544;2023-01-19T07:25:27;18.20;;;8.73;;
56181;SDS011;51963;46.052;14.544;2023-01-19T07:27:59;13.20;;;7.07;;
56181;SDS011;51963;46.052;14.544;2023-01-19T07:30:26;15.60;;;7.10;;
56181;SDS011;51963;46.052;14.544;2023-01-19T07:32:55;12.55;;;6.70;;
56181;SDS011;51963;46.052;14.544;2023-01-19T07:35:24;12.93;;;6.80;;
56181;SDS011;51963;46.052;14.544;2023-01-19T07:37:50;12.70;;;5.93;;
56181;SDS011;51963;46.052;14.544;2023-01-19T07:40:15;12.40;;;5.85;;
56181;SDS011;51963;46.052;14.544;2023-01-19T07:42:44;11.43;;;6.03;;
56181;SDS011;51963;46.052;14.544;2023-01-19T07:45:13;13.05;;;7.13;;
56181;SDS011;51963;46.052;14.544;2023-01-19T07:47:41;11.13;;;5.78;;
56181;SDS011;51963;46.052;14.544;2023-01-19T07:50:08;10.02;;;5.78;;
56181;SDS011;51963;46.052;14.544;2023-01-19T07:52:34;9.50;;;5.65;;
56181;SDS011;51963;46.052;14.544;2023-01-19T07:55:00;16.27;;;7.30;;
56181;SDS011;51963;46.052;14.544;2023-01-19T07:57:26;11.90;;;6.32;;
56181;SDS011;51963;46.052;14.544;2023-01-19T07:59:52;11.80;;;6.60;;
56181;SDS011;51963;46.052;14.544;2023-01-19T08:02:18;12.80;;;6.65;;
56181;SDS011;51963;46.052;14.544;2023-01-19T08:04:46;10.63;;;5.70;;
56181;SDS011;51963;46.052;14.544;2023-01-19T08:07:12;14.07;;;7.43;;
56181;SDS011;51963;46.052;14.544;2023-01-19T08:09:37;10.40;;;5.45;;
56181;SDS011;51963;46.052;14.544;2023-01-19T08:12:03;11.95;;;4.80;;
56181;SDS011;51963;46.052;14.544;2023-01-19T08:14:29;10.95;;;6.03;;
56181;SDS011;51963;46.052;14.544;2023-01-19T08:16:58;14.45;;;7.07;;
56181;SDS011;51963;46.052;14.544;2023-01-19T08:19:24;10.70;;;4.70;;
56181;SDS011;51963;46.052;14.544;2023-01-19T08:21:50;6.47;;;4.03;;
56181;SDS011;51963;46.052;14.544;2023-01-19T08:24:17;5.60;;;3.30;;
56181;SDS011;51963;46.052;14.544;2023-01-19T08:26:45;6.03;;;3.35;;
56181;SDS011;51963;46.052;14.544;2023-01-19T08:29:11;6.40;;;3.35;;
56181;SDS011;51963;46.052;14.544;2023-01-19T08:31:37;4.93;;;3.03;;
56181;SDS011;51963;46.052;14.544;2023-01-19T08:34:03;6.18;;;3.55;;
56181;SDS011;51963;46.052;14.544;2023-01-19T08:36:29;9.02;;;3.75;;
56181;SDS011;51963;46.052;14.544;2023-01-19T08:38:55;7.43;;;3.30;;
56181;SDS011;51963;46.052;14.544;2023-01-19T08:41:21;6.68;;;3.80;;
56181;SDS011;51963;46.052;14.544;2023-01-19T08:43:47;7.10;;;3.92;;
56181;SDS011;51963;46.052;14.544;2023-01-19T08:46:13;6.65;;;3.72;;
56181;SDS011;51963;46.052;14.544;2023-01-19T08:48:42;9.10;;;4.68;;
56181;SDS011;51963;46.052;14.544;2023-01-19T08:51:13;6.95;;;3.83;;
56181;SDS011;51963;46.052;14.544;2023-01-19T08:53:42;7.55;;;4.57;;
56181;SDS011;51963;46.052;14.544;2023-01-19T08:56:08;8.52;;;5.07;;
56181;SDS011;51963;46.052;14.544;2023-01-19T08:58:38;9.68;;;5.10;;
56181;SDS011;51963;46.052;14.544;2023-01-19T09:01:05;11.27;;;5.03;;
56181;SDS011;51963;46.052;14.544;2023-01-19T09:03:33;10.25;;;5.25;;
56181;SDS011;51963;46.052;14.544;2023-01-19T09:06:00;10.95;;;5.60;;
56181;SDS011;51963;46.052;14.544;2023-01-19T09:08:26;12.18;;;5.45;;
56181;SDS011;51963;46.052;14.544;2023-01-19T09:10:51;12.15;;;6.05;;
56181;SDS011;51963;46.052;14.544;2023-01-19T09:13:17;11.20;;;5.82;;
56181;SDS011;51963;46.052;14.544;2023-01-19T09:15:44;11.60;;;5.75;;
56181;SDS011;51963;46.052;14.544;2023-01-19T09:18:11;10.93;;;5.25;;
56181;SDS011;51963;46.052;14.544;2023-01-19T09:20:42;9.57;;;4.90;;
56181;SDS011;51963;46.052;14.544;2023-01-19T09:23:09;9.07;;;4.80;;
56181;SDS011;51963;46.052;14.544;2023-01-19T09:25:37;8.82;;;4.70;;
56181;SDS011;51963;46.052;14.544;2023-01-19T09:28:04;8.38;;;5.15;;
56181;SDS011;51963;46.052;14.544;2023-01-19T09:30:34;11.43;;;5.47;;
56181;SDS011;51963;46.052;14.544;2023-01-19T09:33:05;8.10;;;4.90;;
56181;SDS011;51963;46.052;14.544;2023-01-19T09:35:33;9.57;;;5.15;;
56181;SDS011;51963;46.052;14.544;2023-01-19T09:37:59;10.20;;;4.97;;
56181;SDS011;51963;46.052;14.544;2023-01-19T09:40:25;8.88;;;4.90;;
56181;SDS011;51963;46.052;14.544;2023-01-19T09:45:26;7.07;;;4.40;;
56181;SDS011;51963;46.052;14.544;2023-01-19T09:48:01;9.85;;;5.25;;
56181;SDS011;51963;46.052;14.544;2023-01-19T09:50:30;9.05;;;4.88;;
56181;SDS011;51963;46.052;14.544;2023-01-19T09:53:23;8.98;;;4.95;;
56181;SDS011;51963;46.052;14.544;2023-01-19T09:56:10;8.57;;;5.50;;
56181;SDS011;51963;46.052;14.544;2023-01-19T09:58:39;10.23;;;5.80;;
56181;SDS011;51963;46.052;14.544;2023-01-19T10:01:14;10.98;;;5.85;;
56181;SDS011;51963;46.052;14.544;2023-01-19T10:03:51;10.45;;;5.90;;
56181;SDS011;51963;46.052;14.544;2023-01-19T10:06:45;12.18;;;6.32;;
56181;SDS011;51963;46.052;14.544;2023-01-19T10:09:15;14.32;;;7.63;;
56181;SDS011;51963;46.052;14.544;2023-01-19T10:12:00;17.27;;;7.82;;
56181;SDS011;51963;46.052;14.544;2023-01-19T10:14:37;16.52;;;8.05;;
56181;SDS011;51963;46.052;14.544;2023-01-19T10:19:57;15.20;;;8.43;;
56181;SDS011;51963;46.052;14.544;2023-01-19T10:22:27;13.30;;;8.10;;
56181;SDS011;51963;46.052;14.544;2023-01-19T10:25:00;14.40;;;7.85;;
56181;SDS011;51963;46.052;14.544;2023-01-19T10:27:31;13.93;;;7.72;;
56181;SDS011;51963;46.052;14.544;2023-01-19T10:29:59;14.48;;;8.15;;
56181;SDS011;51963;46.052;14.544;2023-01-19T10:32:27;15.77;;;9.55;;
56181;SDS011;51963;46.052;14.544;2023-01-19T10:34:55;17.95;;;9.35;;
56181;SDS011;51963;46.052;14.544;2023-01-19T10:42:40;15.25;;;8.45;;
56181;SDS011;51963;46.052;14.544;2023-01-19T10:45:23;16.23;;;9.32;;
56181;SDS011;51963;46.052;14.544;2023-01-19T10:47:50;17.10;;;8.88;;
56181;SDS011;51963;46.052;14.544;2023-01-19T10:52:51;10.82;;;5.68;;
56181;SDS011;51963;46.052;14.544;2023-01-19T10:57:49;7.75;;;4.03;;
56181;SDS011;51963;46.052;14.544;2023-01-19T11:03:02;7.80;;;4.13;;
56181;SDS011;51963;46.052;14.544;2023-01-19T11:05:48;3.50;;;2.08;;
56181;SDS011;51963;46.052;14.544;2023-01-19T11:08:49;2.95;;;1.98;;
56181;SDS011;51963;46.052;14.544;2023-01-19T11:11:08;4.05;;;2.17;;
56181;SDS011;51963;46.052;14.544;2023-01-19T11:13:37;4.65;;;1.92;;
56181;SDS011;51963;46.052;14.544;2023-01-19T11:16:46;2.42;;;1.65;;
56181;SDS011;51963;46.052;14.544;2023-01-19T11:18:55;3.13;;;1.52;;
56181;SDS011;51963;46.052;14.544;2023-01-19T11:21:25;2.78;;;1.35;;
56181;SDS011;51963;46.052;14.544;2023-01-19T11:23:56;3.53;;;1.90;;
56181;SDS011;51963;46.052;14.544;2023-01-19T11:26:38;3.95;;;2.28;;
56181;SDS011;51963;46.052;14.544;2023-01-19T11:29:15;6.55;;;2.95;;
56181;SDS011;51963;46.052;14.544;2023-01-19T11:31:44;4.30;;;2.10;;
56181;SDS011;51963;46.052;14.544;2023-01-19T11:36:57;5.85;;;2.85;;
56181;SDS011;51963;46.052;14.544;2023-01-19T11:39:50;4.75;;;2.28;;
56181;SDS011;51963;46.052;14.544;2023-01-19T11:42:20;8.07;;;3.80;;
56181;SDS011;51963;46.052;14.544;2023-01-19T11:44:49;6.15;;;3.47;;
56181;SDS011;51963;46.052;14.544;2023-01-19T11:47:29;5.80;;;3.30;;
56181;SDS011;51963;46.052;14.544;2023-01-19T11:58:21;8.93;;;3.80;;
56181;SDS011;51963;46.052;14.544;2023-01-19T12:00:53;8.75;;;4.28;;
56181;SDS011;51963;46.052;14.544;2023-01-19T12:03:26;6.78;;;3.40;;
56181;SDS011;51963;46.052;14.544;2023-01-19T12:05:58;7.43;;;3.28;;
56181;SDS011;51963;46.052;14.544;2023-01-19T12:08:33;7.55;;;3.53;;
56181;SDS011;51963;46.052;14.544;2023-01-19T12:11:03;7.05;;;3.72;;
56181;SDS011;51963;46.052;14.544;2023-01-19T12:13:30;6.35;;;3.55;;
56181;SDS011;51963;46.052;14.544;2023-01-19T12:16:00;8.35;;;4.43;;
56181;SDS011;51963;46.052;14.544;2023-01-19T12:18:36;7.45;;;4.00;;
56181;SDS011;51963;46.052;14.544;2023-01-19T12:21:15;7.50;;;4.40;;
56181;SDS011;51963;46.052;14.544;2023-01-19T12:26:37;8.15;;;4.40;;
56181;SDS011;51963;46.052;14.544;2023-01-19T12:29:18;7.72;;;4.75;;
56181;SDS011;51963;46.052;14.544;2023-01-19T12:40:02;7.63;;;4.22;;
56181;SDS011;51963;46.052;14.544;2023-01-19T12:42:43;5.75;;;3.50;;
56181;SDS011;51963;46.052;14.544;2023-01-19T12:45:20;6.70;;;4.30;;
56181;SDS011;51963;46.052;14.544;2023-01-19T12:47:50;6.53;;;4.18;;
56181;SDS011;51963;46.052;14.544;2023-01-19T12:50:17;6.70;;;4.27;;
56181;SDS011;51963;46.052;14.544;2023-01-19T12:52:49;7.70;;;4.25;;
56181;SDS011;51963;46.052;14.544;2023-01-19T12:55:24;9.63;;;4.40;;
56181;SDS011;51963;46.052;14.544;2023-01-19T12:57:57;7.22;;;4.03;;
56181;SDS011;51963;46.052;14.544;2023-01-19T13:00:27;8.27;;;4.80;;
56181;SDS011;51963;46.052;14.544;2023-01-19T13:13:34;13.25;;;6.57;;
56181;SDS011;51963;46.052;14.544;2023-01-19T13:18:43;15.73;;;8.02;;
56181;SDS011;51963;46.052;14.544;2023-01-19T13:21:13;9.82;;;5.47;;
56181;SDS011;51963;46.052;14.544;2023-01-19T13:23:53;8.07;;;5.13;;
56181;SDS011;51963;46.052;14.544;2023-01-19T13:26:24;9.63;;;4.78;;
56181;SDS011;51963;46.052;14.544;2023-01-19T13:28:56;8.20;;;4.68;;
56181;SDS011;51963;46.052;14.544;2023-01-19T13:31:34;9.38;;;4.90;;
56181;SDS011;51963;46.052;14.544;2023-01-19T13:34:01;8.68;;;5.25;;
56181;SDS011;51963;46.052;14.544;2023-01-19T13:36:29;8.82;;;4.88;;
56181;SDS011;51963;46.052;14.544;2023-01-19T13:39:01;9.65;;;5.05;;
56181;SDS011;51963;46.052;14.544;2023-01-19T13:41:30;9.65;;;5.13;;
56181;SDS011;51963;46.052;14.544;2023-01-19T13:44:01;9.20;;;4.90;;
56181;SDS011;51963;46.052;14.544;2023-01-19T13:46:42;10.25;;;5.57;;
56181;SDS011;51963;46.052;14.544;2023-01-19T13:49:12;11.95;;;6.05;;
56181;SDS011;51963;46.052;14.544;2023-01-19T13:51:41;12.40;;;6.55;;
56181;SDS011;51963;46.052;14.544;2023-01-19T13:54:12;13.52;;;6.22;;
56181;SDS011;51963;46.052;14.544;2023-01-19T13:56:40;13.00;;;6.55;;
56181;SDS011;51963;46.052;14.544;2023-01-19T13:59:14;10.23;;;5.30;;
56181;SDS011;51963;46.052;14.544;2023-01-19T14:01:41;9.20;;;5.38;;
56181;SDS011;51963;46.052;14.544;2023-01-19T14:04:24;10.10;;;5.50;;
56181;SDS011;51963;46.052;14.544;2023-01-19T14:06:55;9.40;;;5.28;;
56181;SDS011;51963;46.052;14.544;2023-01-19T14:09:24;8.68;;;3.95;;
56181;SDS011;51963;46.052;14.544;2023-01-19T14:12:09;9.98;;;5.30;;
56181;SDS011;51963;46.052;14.544;2023-01-19T14:14:38;10.93;;;5.45;;
56181;SDS011;51963;46.052;14.544;2023-01-19T14:17:05;11.75;;;5.65;;
56181;SDS011;51963;46.052;14.544;2023-01-19T14:19:46;10.40;;;5.18;;
56181;SDS011;51963;46.052;14.544;2023-01-19T14:22:15;10.27;;;5.22;;
56181;SDS011;51963;46.052;14.544;2023-01-19T14:24:41;10.45;;;5.00;;
56181;SDS011;51963;46.052;14.544;2023-01-19T14:29:34;10.75;;;5.70;;
56181;SDS011;51963;46.052;14.544;2023-01-19T14:37:01;10.05;;;5.30;;
56181;SDS011;51963;46.052;14.544;2023-01-19T14:39:30;10.00;;;5.25;;
56181;SDS011;51963;46.052;14.544;2023-01-19T14:42:00;13.27;;;7.30;;
56181;SDS011;51963;46.052;14.544;2023-01-19T14:44:34;12.15;;;6.28;;
56181;SDS011;51963;46.052;14.544;2023-01-19T14:47:03;13.70;;;6.88;;
56181;SDS011;51963;46.052;14.544;2023-01-19T14:49:37;12.40;;;7.05;;
56181;SDS011;51963;46.052;14.544;2023-01-19T14:52:27;12.82;;;6.22;;
56181;SDS011;51963;46.052;14.544;2023-01-19T14:54:54;8.73;;;5.43;;
56181;SDS011;51963;46.052;14.544;2023-01-19T14:57:21;9.50;;;5.10;;
56181;SDS011;51963;46.052;14.544;2023-01-19T14:59:47;9.27;;;5.53;;
56181;SDS011;51963;46.052;14.544;2023-01-19T15:02:14;10.75;;;5.88;;
56181;SDS011;51963;46.052;14.544;2023-01-19T15:04:43;12.43;;;5.85;;
56181;SDS011;51963;46.052;14.544;2023-01-19T15:07:20;11.48;;;5.30;;
56181;SDS011;51963;46.052;14.544;2023-01-19T15:09:48;11.75;;;5.55;;
56181;SDS011;51963;46.052;14.544;2023-01-19T15:12:15;9.05;;;5.07;;
56181;SDS011;51963;46.052;14.544;2023-01-19T15:14:43;10.32;;;4.65;;
56181;SDS011;51963;46.052;14.544;2023-01-19T15:17:13;6.80;;;3.72;;
56181;SDS011;51963;46.052;14.544;2023-01-19T15:19:41;6.68;;;3.03;;
56181;SDS011;51963;46.052;14.544;2023-01-19T15:22:11;5.68;;;3.00;;
56181;SDS011;51963;46.052;14.544;2023-01-19T15:24:37;5.88;;;3.05;;
56181;SDS011;51963;46.052;14.544;2023-01-19T15:27:07;5.73;;;2.80;;
56181;SDS011;51963;46.052;14.544;2023-01-19T15:29:35;4.47;;;3.15;;
56181;SDS011;51963;46.052;14.544;2023-01-19T15:32:00;4.55;;;2.90;;
56181;SDS011;51963;46.052;14.544;2023-01-19T15:34:28;5.32;;;3.38;;
56181;SDS011;51963;46.052;14.544;2023-01-19T15:36:53;5.22;;;3.55;;
56181;SDS011;51963;46.052;14.544;2023-01-19T15:39:19;5.35;;;3.30;;
56181;SDS011;51963;46.052;14.544;2023-01-19T15:41:45;5.72;;;3.40;;
56181;SDS011;51963;46.052;14.544;2023-01-19T15:44:10;5.97;;;3.30;;
56181;SDS011;51963;46.052;14.544;2023-01-19T15:46:36;7.22;;;3.55;;
56181;SDS011;51963;46.052;14.544;2023-01-19T15:49:02;6.47;;;3.35;;
56181;SDS011;51963;46.052;14.544;2023-01-19T15:51:30;6.33;;;3.23;;
56181;SDS011;51963;46.052;14.544;2023-01-19T15:53:55;6.40;;;2.90;;